Terminal Aerodrome Forecast
Issued by NWS

Home | Current Version | Previous Version | Text Only | Print | Product List | Glossary On
Versions: 1 2 3 4 5 6 7 8 9 10 11 12 13
000
FTUS45 KMSO 231311 AAA
TAFSMN
TAF AMD
KSMN 231311Z 2313/2412 VRB02KT 4SM FU SKC
     FM231900 VRB06KT 6SM FU BKN120
     FM240000 VRB06KT P6SM VCSH BKN100
      AMD LTD TO CLD VIS AND WIND=

USA.gov is the U.S. government's official web portal to all federal, state and local government web resources and services.